createdAt,value
2022-10-20T00:01:29.905Z,16.00
2022-10-20T00:03:57.621Z,16.10
2022-10-20T00:06:27.967Z,16.20
2022-10-20T00:08:57.073Z,16.10
2022-10-20T00:11:25.665Z,16.10
2022-10-20T00:13:54.749Z,16.10
2022-10-20T00:16:23.586Z,16.10
2022-10-20T00:18:51.255Z,16.00
2022-10-20T00:21:24.325Z,16.00
2022-10-20T00:23:52.084Z,15.90
2022-10-20T00:26:22.542Z,15.90
2022-10-20T00:28:50.787Z,16.00
2022-10-20T00:31:20.341Z,16.00
2022-10-20T00:33:48.111Z,16.00
2022-10-20T00:36:17.709Z,16.00
2022-10-20T00:38:45.289Z,15.90
2022-10-20T00:41:15.283Z,16.00
2022-10-20T00:43:50.039Z,16.10
2022-10-20T00:46:23.141Z,16.00
2022-10-20T00:48:54.759Z,15.90
2022-10-20T00:51:26.339Z,15.80
2022-10-20T00:54:00.136Z,15.80
2022-10-20T00:56:27.860Z,15.80
2022-10-20T00:58:56.023Z,15.80
2022-10-20T01:01:23.640Z,15.70
2022-10-20T01:03:51.746Z,15.60
2022-10-20T01:06:22.235Z,15.60
2022-10-20T01:08:54.115Z,15.60
2022-10-20T01:11:21.486Z,15.50
2022-10-20T01:14:17.128Z,15.60
2022-10-20T01:17:14.617Z,15.60
2022-10-20T01:20:08.457Z,15.60
2022-10-20T01:22:56.986Z,15.60
2022-10-20T01:25:52.369Z,15.60
2022-10-20T01:28:25.550Z,15.70
2022-10-20T01:30:58.946Z,15.60
2022-10-20T01:33:38.136Z,15.60
2022-10-20T01:36:30.798Z,15.60
2022-10-20T01:39:40.588Z,15.70
2022-10-20T01:42:13.285Z,15.70
2022-10-20T01:44:42.488Z,15.70
2022-10-20T01:47:11.937Z,15.80
2022-10-20T01:49:43.391Z,15.80
2022-10-20T01:52:12.333Z,15.80
2022-10-20T01:54:40.014Z,15.70
2022-10-20T01:57:29.221Z,15.60
2022-10-20T02:00:08.515Z,15.60
2022-10-20T02:03:07.585Z,15.70
2022-10-20T02:05:40.936Z,15.60
2022-10-20T02:08:17.225Z,15.60
2022-10-20T02:10:52.629Z,15.60
2022-10-20T02:13:21.630Z,15.70
2022-10-20T02:15:55.920Z,15.70
2022-10-20T02:18:31.441Z,15.70
2022-10-20T02:21:02.566Z,15.60
2022-10-20T02:23:35.038Z,15.40
2022-10-20T02:26:07.738Z,15.40
2022-10-20T02:28:38.880Z,15.50
2022-10-20T02:31:06.619Z,15.50
2022-10-20T02:33:34.961Z,15.40
2022-10-20T02:36:05.317Z,15.40
2022-10-20T02:38:32.789Z,15.30
2022-10-20T02:41:00.152Z,15.20
2022-10-20T02:43:27.524Z,15.10
2022-10-20T02:45:54.906Z,15.10
2022-10-20T02:48:22.370Z,15.10
2022-10-20T02:50:49.785Z,15.10
2022-10-20T02:53:17.177Z,15.00
2022-10-20T02:55:44.652Z,15.00
2022-10-20T02:58:12.013Z,14.90
2022-10-20T03:00:39.387Z,14.90
2022-10-20T03:03:06.781Z,14.90
2022-10-20T03:05:39.680Z,14.90
2022-10-20T03:08:07.259Z,14.90
2022-10-20T03:10:35.362Z,14.80
2022-10-20T03:13:03.036Z,14.70
2022-10-20T03:15:30.521Z,14.80
2022-10-20T03:17:58.108Z,14.80
2022-10-20T03:20:25.566Z,14.80
2022-10-20T03:22:53.087Z,14.60
2022-10-20T03:25:20.477Z,14.60
2022-10-20T03:27:51.573Z,14.60
2022-10-20T03:30:19.118Z,14.60
2022-10-20T03:32:46.561Z,14.70
2022-10-20T03:35:14.060Z,14.60
2022-10-20T03:37:41.430Z,14.60
2022-10-20T03:40:09.658Z,14.60
2022-10-20T03:42:37.319Z,14.60
2022-10-20T03:45:05.538Z,14.60
2022-10-20T03:47:32.948Z,14.60
2022-10-20T03:50:00.438Z,14.60
2022-10-20T03:52:28.039Z,14.60
2022-10-20T03:54:55.457Z,14.60
2022-10-20T03:57:22.899Z,14.50
2022-10-20T03:59:50.276Z,14.40
2022-10-20T04:02:29.710Z,14.30
2022-10-20T04:04:57.262Z,14.30
2022-10-20T04:07:24.705Z,14.40
2022-10-20T04:09:52.155Z,14.30
2022-10-20T04:12:19.733Z,14.30
2022-10-20T04:14:47.772Z,14.30
2022-10-20T04:17:15.273Z,14.40
2022-10-20T04:19:42.682Z,14.40
2022-10-20T04:22:10.090Z,14.40
2022-10-20T04:24:37.471Z,14.40
2022-10-20T04:27:05.421Z,14.30
2022-10-20T04:29:33.023Z,14.40
2022-10-20T04:32:00.386Z,14.40
2022-10-20T04:34:27.786Z,14.40
2022-10-20T04:36:55.261Z,14.40
2022-10-20T04:39:22.747Z,14.30
2022-10-20T04:41:50.215Z,14.30
2022-10-20T04:44:17.690Z,14.20
2022-10-20T04:46:45.049Z,14.20
2022-10-20T04:49:12.434Z,14.20
2022-10-20T04:51:39.842Z,14.20
2022-10-20T04:54:07.224Z,14.20
2022-10-20T04:56:34.702Z,14.20
2022-10-20T04:59:03.119Z,14.10
2022-10-20T05:01:31.604Z,14.10
2022-10-20T05:03:59.280Z,14.10
2022-10-20T05:06:29.456Z,14.10
2022-10-20T05:08:59.544Z,14.10
2022-10-20T05:11:28.680Z,14.10
2022-10-20T05:13:56.912Z,14.10
2022-10-20T05:16:24.583Z,14.10
2022-10-20T05:18:54.658Z,14.10
2022-10-20T05:21:25.246Z,14.10
2022-10-20T05:24:00.932Z,14.20
2022-10-20T05:26:32.484Z,14.20
2022-10-20T05:29:00.184Z,14.20
2022-10-20T05:31:27.889Z,14.20
2022-10-20T05:33:56.543Z,14.20
2022-10-20T05:36:26.624Z,14.20
2022-10-20T05:38:55.469Z,14.10
2022-10-20T05:41:25.575Z,14.20
2022-10-20T05:43:59.401Z,14.20
2022-10-20T05:46:29.025Z,14.20
2022-10-20T05:48:58.821Z,14.20
2022-10-20T05:51:29.089Z,14.40
2022-10-20T05:53:58.418Z,14.50
2022-10-20T05:56:27.504Z,14.50
2022-10-20T05:58:55.583Z,14.60
2022-10-20T06:01:24.834Z,14.70
2022-10-20T06:03:58.195Z,14.90
2022-10-20T06:06:29.233Z,15.00
2022-10-20T06:08:59.425Z,15.20
2022-10-20T06:11:28.366Z,15.30
2022-10-20T06:13:56.963Z,15.50
2022-10-20T06:16:27.381Z,15.80
2022-10-20T06:18:54.913Z,16.20
2022-10-20T06:21:24.805Z,16.60
2022-10-20T06:23:53.089Z,17.10
2022-10-20T06:26:23.517Z,17.60
2022-10-20T06:28:58.713Z,18.10
2022-10-20T06:31:31.558Z,18.70
2022-10-20T06:33:59.405Z,19.10
2022-10-20T06:36:27.937Z,19.30
2022-10-20T06:38:59.261Z,19.50
2022-10-20T06:41:27.927Z,19.90
2022-10-20T06:43:59.109Z,20.50
2022-10-20T06:46:28.784Z,21.20
2022-10-20T06:48:58.752Z,21.80
2022-10-20T06:51:27.026Z,22.20
2022-10-20T06:53:54.448Z,22.20
2022-10-20T06:56:23.990Z,22.10
2022-10-20T06:58:54.198Z,22.00
2022-10-20T07:01:24.148Z,21.70
2022-10-20T07:03:54.202Z,21.50
2022-10-20T07:06:30.238Z,21.50
2022-10-20T07:08:58.486Z,21.30
2022-10-20T07:11:29.082Z,21.40
2022-10-20T07:13:58.830Z,22.10
2022-10-20T07:16:29.210Z,22.70
2022-10-20T07:18:57.424Z,23.10
2022-10-20T07:21:30.766Z,23.20
2022-10-20T07:24:02.746Z,23.00
2022-10-20T07:26:32.739Z,23.10
2022-10-20T07:29:01.599Z,23.70
2022-10-20T07:31:31.103Z,24.00
2022-10-20T07:34:13.126Z,24.50
2022-10-20T07:36:43.975Z,25.10
2022-10-20T07:39:13.189Z,25.40
2022-10-20T07:41:43.954Z,24.90
2022-10-20T07:44:11.543Z,24.80
2022-10-20T07:46:38.994Z,25.10
2022-10-20T07:49:38.242Z,25.20
2022-10-20T07:51:53.785Z,25.30
2022-10-20T07:54:21.200Z,25.50
2022-10-20T07:56:49.417Z,25.10
2022-10-20T07:59:17.261Z,24.50
2022-10-20T08:01:46.427Z,23.80
2022-10-20T08:04:13.938Z,23.80
2022-10-20T08:06:41.443Z,24.40
2022-10-20T08:09:08.883Z,24.70
2022-10-20T08:11:36.414Z,24.60
2022-10-20T08:14:04.226Z,24.40
2022-10-20T08:16:31.708Z,24.30
2022-10-20T08:21:40.392Z,24.20
2022-10-20T08:24:07.778Z,23.90
2022-10-20T08:26:35.151Z,23.30
2022-10-20T08:29:02.785Z,23.10
2022-10-20T08:31:30.326Z,23.00
2022-10-20T08:33:57.867Z,23.10
2022-10-20T08:36:25.549Z,23.20
2022-10-20T08:38:54.546Z,23.30
2022-10-20T08:41:43.333Z,23.30
2022-10-20T08:44:21.846Z,23.50
2022-10-20T08:46:49.518Z,23.40
2022-10-20T08:49:29.338Z,23.30
2022-10-20T08:51:56.861Z,23.40
2022-10-20T08:54:24.380Z,23.60
2022-10-20T08:56:52.975Z,23.70
2022-10-20T08:59:32.953Z,23.90
2022-10-20T09:02:01.198Z,24.40
2022-10-20T09:04:37.847Z,24.60
2022-10-20T09:07:17.169Z,24.60
2022-10-20T09:09:44.630Z,24.80
2022-10-20T09:12:14.999Z,24.90
2022-10-20T09:14:42.468Z,24.80
2022-10-20T09:17:18.204Z,24.30
2022-10-20T09:19:54.270Z,23.70
2022-10-20T09:22:24.562Z,23.50
2022-10-20T09:24:55.142Z,23.40
2022-10-20T09:27:34.229Z,23.50
2022-10-20T09:30:25.997Z,23.90
2022-10-20T09:32:53.602Z,24.10
2022-10-20T09:35:32.101Z,24.50
2022-10-20T09:38:19.769Z,24.70
2022-10-20T09:41:01.371Z,24.40
2022-10-20T09:43:28.982Z,24.30
2022-10-20T09:46:06.700Z,24.10
2022-10-20T09:48:41.716Z,23.90
2022-10-20T09:51:15.981Z,23.70
2022-10-20T09:54:16.038Z,23.60
2022-10-20T09:56:44.630Z,23.60
2022-10-20T09:59:34.259Z,23.80
2022-10-20T10:02:04.773Z,24.30
2022-10-20T10:04:35.217Z,24.40
2022-10-20T10:07:04.891Z,24.70
2022-10-20T10:09:37.971Z,24.90
2022-10-20T10:12:13.940Z,24.60
2022-10-20T10:15:05.407Z,24.30
2022-10-20T10:17:35.803Z,24.10
2022-10-20T10:20:07.811Z,24.20
2022-10-20T10:22:36.470Z,24.30
2022-10-20T10:25:05.884Z,24.30
2022-10-20T10:27:35.561Z,24.30
2022-10-20T10:30:37.234Z,24.10
2022-10-20T10:33:26.477Z,24.40
2022-10-20T10:35:53.964Z,24.50
2022-10-20T10:38:21.670Z,24.50
2022-10-20T10:41:21.794Z,24.50
2022-10-20T10:44:21.252Z,24.50
2022-10-20T10:47:17.659Z,24.90
2022-10-20T10:49:52.123Z,25.00
2022-10-20T10:52:28.091Z,24.70
2022-10-20T10:55:11.874Z,24.10
2022-10-20T10:57:47.726Z,23.80
2022-10-20T11:00:30.069Z,23.80
2022-10-20T11:03:03.407Z,23.70
2022-10-20T11:06:02.429Z,23.60
2022-10-20T11:08:38.947Z,23.50
2022-10-20T11:11:18.131Z,23.40
2022-10-20T11:14:10.135Z,23.40
2022-10-20T11:16:44.949Z,23.40
2022-10-20T11:19:15.106Z,23.50
2022-10-20T11:21:48.724Z,23.50
2022-10-20T11:25:06.182Z,23.60
2022-10-20T11:27:38.976Z,23.70
2022-10-20T11:30:22.045Z,23.80
2022-10-20T11:33:14.776Z,23.90
2022-10-20T11:35:48.781Z,24.00
2022-10-20T11:38:22.307Z,23.90
2022-10-20T11:41:17.132Z,23.80
2022-10-20T11:44:04.246Z,23.80
2022-10-20T11:46:42.205Z,23.80
2022-10-20T11:49:12.446Z,23.90
2022-10-20T11:52:05.996Z,24.00
2022-10-20T11:54:57.379Z,24.00
2022-10-20T11:57:43.166Z,24.00
2022-10-20T12:00:28.621Z,24.00
2022-10-20T12:03:43.341Z,24.10
2022-10-20T12:06:53.672Z,24.10
2022-10-20T12:09:39.732Z,24.10
2022-10-20T12:12:27.871Z,24.10
2022-10-20T12:15:00.218Z,24.10
2022-10-20T12:17:41.081Z,24.30
2022-10-20T12:20:23.340Z,24.30
2022-10-20T12:22:53.938Z,24.30
2022-10-20T12:25:27.409Z,24.30
2022-10-20T12:28:22.869Z,24.30
2022-10-20T12:30:56.807Z,24.00
2022-10-20T12:33:41.150Z,24.00
2022-10-20T12:36:18.081Z,24.00
2022-10-20T12:39:13.586Z,23.80
2022-10-20T12:42:05.255Z,23.90
2022-10-20T12:44:42.122Z,23.80
2022-10-20T12:47:10.461Z,23.80
2022-10-20T12:49:44.279Z,23.80
2022-10-20T12:52:22.368Z,23.80
2022-10-20T12:55:00.826Z,23.90
2022-10-20T12:57:41.572Z,23.80
2022-10-20T13:00:24.087Z,23.90
2022-10-20T13:02:52.290Z,23.80
2022-10-20T13:05:19.518Z,24.00
2022-10-20T13:07:49.368Z,24.20
2022-10-20T13:10:31.790Z,24.40
2022-10-20T13:13:01.961Z,24.70
2022-10-20T13:15:35.008Z,24.90
2022-10-20T13:18:13.514Z,24.80
2022-10-20T13:20:59.753Z,24.80
2022-10-20T13:23:40.222Z,24.70
2022-10-20T13:26:17.023Z,24.50
2022-10-20T13:28:49.313Z,24.50
2022-10-20T13:31:16.610Z,24.40
2022-10-20T13:37:07.530Z,24.30
2022-10-20T13:39:43.383Z,24.40
2022-10-20T13:42:19.390Z,24.50
2022-10-20T13:45:14.773Z,24.50
2022-10-20T13:48:09.869Z,24.60
2022-10-20T13:50:41.398Z,24.50
2022-10-20T13:53:32.836Z,24.40
2022-10-20T13:56:02.969Z,24.30
2022-10-20T13:58:30.523Z,24.10
2022-10-20T14:01:05.533Z,24.10
2022-10-20T14:03:45.203Z,24.20
2022-10-20T14:06:28.139Z,24.30
2022-10-20T14:08:58.098Z,24.30
2022-10-20T14:11:30.715Z,24.20
2022-10-20T14:14:01.131Z,24.00
2022-10-20T14:16:30.459Z,24.00
2022-10-20T14:19:09.098Z,23.90
2022-10-20T14:21:41.802Z,23.90
2022-10-20T14:24:16.790Z,23.90
2022-10-20T14:26:44.680Z,23.70
2022-10-20T14:29:17.340Z,23.60
2022-10-20T14:31:47.852Z,23.50
2022-10-20T14:34:23.827Z,23.50
2022-10-20T14:36:52.901Z,23.50
2022-10-20T14:39:36.418Z,23.40
2022-10-20T14:42:36.666Z,23.30
2022-10-20T14:45:05.048Z,23.20
2022-10-20T14:47:41.620Z,23.10
2022-10-20T14:50:43.023Z,23.10
2022-10-20T14:53:16.510Z,23.10
2022-10-20T14:55:44.785Z,23.20
2022-10-20T14:58:50.511Z,23.10
2022-10-20T15:01:27.592Z,23.10
2022-10-20T15:04:29.957Z,23.00
2022-10-20T15:07:26.479Z,23.00
2022-10-20T15:10:09.620Z,23.00
2022-10-20T15:12:37.032Z,23.00
2022-10-20T15:15:08.441Z,22.90
2022-10-20T15:17:40.270Z,22.80
2022-10-20T15:20:32.662Z,22.70
2022-10-20T15:23:04.849Z,22.70
2022-10-20T15:25:56.623Z,22.60
2022-10-20T15:28:38.349Z,22.60
2022-10-20T15:31:26.411Z,22.40
2022-10-20T15:33:55.190Z,22.40
2022-10-20T15:36:28.868Z,22.40
2022-10-20T15:38:56.983Z,22.30
2022-10-20T15:41:27.569Z,22.30
2022-10-20T15:43:54.988Z,22.30
2022-10-20T15:46:22.884Z,22.20
2022-10-20T15:48:50.337Z,22.20
2022-10-20T15:51:25.719Z,22.10
2022-10-20T15:53:53.364Z,22.10
2022-10-20T15:56:20.853Z,22.00
2022-10-20T15:58:50.096Z,21.90
2022-10-20T16:01:18.593Z,21.90
2022-10-20T16:03:46.784Z,21.80
2022-10-20T16:06:16.193Z,21.70
2022-10-20T16:08:45.590Z,21.50
2022-10-20T16:11:14.581Z,21.40
2022-10-20T16:13:42.377Z,21.30
2022-10-20T16:16:13.652Z,21.20
2022-10-20T16:18:41.103Z,21.10
2022-10-20T16:21:09.191Z,21.00
2022-10-20T16:23:42.140Z,20.90
2022-10-20T16:26:13.195Z,20.80
2022-10-20T16:28:41.479Z,20.70
2022-10-20T16:31:11.155Z,20.60
2022-10-20T16:33:38.605Z,20.60
2022-10-20T16:36:10.913Z,20.50
2022-10-20T16:38:40.217Z,20.40
2022-10-20T16:41:11.250Z,20.40
2022-10-20T16:43:40.643Z,20.40
2022-10-20T16:46:09.725Z,20.30
2022-10-20T16:48:40.443Z,20.30
2022-10-20T16:51:11.422Z,20.20
2022-10-20T16:53:39.007Z,20.10
2022-10-20T16:56:07.374Z,20.10
2022-10-20T16:58:35.328Z,20.10
2022-10-20T17:01:06.519Z,20.00
2022-10-20T17:03:34.616Z,20.00
2022-10-20T17:06:05.846Z,20.00
2022-10-20T17:08:34.171Z,20.00
2022-10-20T17:11:07.307Z,20.00
2022-10-20T17:13:35.958Z,19.90
2022-10-20T17:16:06.442Z,19.80
2022-10-20T17:18:34.304Z,19.80
2022-10-20T17:21:02.178Z,19.70
2022-10-20T17:23:34.002Z,19.70
2022-10-20T17:26:04.811Z,19.70
2022-10-20T17:28:34.270Z,19.70
2022-10-20T17:31:02.285Z,19.70
2022-10-20T17:33:30.635Z,19.70
2022-10-20T17:35:59.229Z,19.60
2022-10-20T17:38:28.163Z,19.60
2022-10-20T17:40:55.746Z,19.60
2022-10-20T17:43:23.426Z,19.70
2022-10-20T17:46:00.651Z,19.70
2022-10-20T17:48:28.520Z,19.60
2022-10-20T17:50:59.762Z,19.50
2022-10-20T17:53:27.439Z,19.50
2022-10-20T17:55:54.825Z,19.30
2022-10-20T17:58:22.251Z,19.30
2022-10-20T18:00:56.396Z,19.40
2022-10-20T18:03:24.386Z,19.30
2022-10-20T18:05:51.746Z,19.30
2022-10-20T18:08:19.246Z,19.30
2022-10-20T18:10:46.618Z,19.30
2022-10-20T18:13:13.997Z,19.20
2022-10-20T18:15:43.038Z,19.10
2022-10-20T18:18:10.520Z,19.10
2022-10-20T18:20:37.882Z,19.10
2022-10-20T18:23:05.273Z,19.20
2022-10-20T18:25:35.541Z,19.10
2022-10-20T18:28:03.012Z,19.20
2022-10-20T18:30:30.385Z,19.20
2022-10-20T18:32:57.751Z,19.20
2022-10-20T18:35:25.181Z,19.20
2022-10-20T18:37:57.439Z,19.10
2022-10-20T18:40:24.911Z,19.20
2022-10-20T18:42:52.268Z,19.20
2022-10-20T18:45:22.439Z,19.20
2022-10-20T18:47:52.789Z,19.10
2022-10-20T18:50:20.419Z,19.10
2022-10-20T18:52:47.882Z,19.00
2022-10-20T18:55:15.394Z,19.00
2022-10-20T18:57:42.887Z,18.90
2022-10-20T19:00:10.959Z,18.90
2022-10-20T19:02:38.393Z,18.90
2022-10-20T19:05:06.333Z,18.90
2022-10-20T19:07:34.829Z,18.90
2022-10-20T19:10:02.360Z,18.80
2022-10-20T19:12:29.721Z,18.80
2022-10-20T19:14:57.115Z,18.70
2022-10-20T19:17:24.550Z,18.70
2022-10-20T19:19:54.262Z,18.60
2022-10-20T19:22:25.582Z,18.60
2022-10-20T19:24:55.887Z,18.60
2022-10-20T19:27:27.381Z,18.50
2022-10-20T19:29:56.007Z,18.50
2022-10-20T19:32:23.472Z,18.40
2022-10-20T19:34:51.114Z,18.40
2022-10-20T19:37:18.491Z,18.40
2022-10-20T19:39:45.879Z,18.30
2022-10-20T19:42:13.815Z,18.30
2022-10-20T19:44:41.273Z,18.30
2022-10-20T19:47:09.182Z,18.40
2022-10-20T19:49:37.672Z,18.30
2022-10-20T19:52:06.131Z,18.30
2022-10-20T19:54:34.065Z,18.30
2022-10-20T19:57:01.507Z,18.30
2022-10-20T19:59:28.992Z,18.30
2022-10-20T20:01:56.582Z,18.30
2022-10-20T20:04:24.005Z,18.20
2022-10-20T20:06:51.623Z,18.20
2022-10-20T20:09:19.143Z,18.20
2022-10-20T20:11:46.593Z,18.10
2022-10-20T20:14:16.585Z,18.10
2022-10-20T20:16:46.060Z,18.10
2022-10-20T20:19:15.412Z,18.00
2022-10-20T20:21:42.896Z,18.00
2022-10-20T20:24:12.140Z,18.00
2022-10-20T20:26:39.550Z,17.90
2022-10-20T20:29:07.095Z,17.90
2022-10-20T20:31:34.508Z,17.90
2022-10-20T20:34:01.994Z,17.80
2022-10-20T20:36:29.620Z,17.80
2022-10-20T20:38:58.973Z,17.80
2022-10-20T20:41:30.180Z,17.80
2022-10-20T20:43:57.879Z,17.80
2022-10-20T20:46:29.133Z,17.80
2022-10-20T20:48:57.462Z,17.70
2022-10-20T20:51:29.049Z,17.70
2022-10-20T20:53:56.459Z,17.70
2022-10-20T20:58:12.967Z,17.60
2022-10-20T20:59:11.319Z,17.60
2022-10-20T21:01:39.124Z,17.60
2022-10-20T21:04:10.247Z,17.60
2022-10-20T21:07:00.653Z,17.60
2022-10-20T21:09:27.628Z,17.60
2022-10-20T21:11:55.006Z,17.50
2022-10-20T21:14:22.405Z,17.50
2022-10-20T21:16:49.803Z,17.50
2022-10-20T21:19:18.052Z,17.50
2022-10-20T21:21:50.675Z,17.50
2022-10-20T21:24:18.350Z,17.40
2022-10-20T21:26:45.894Z,17.40
2022-10-20T21:29:13.957Z,17.40
2022-10-20T21:31:41.466Z,17.40
2022-10-20T21:34:10.501Z,17.40
2022-10-20T21:36:40.087Z,17.30
2022-10-20T21:39:11.574Z,17.20
2022-10-20T21:41:39.190Z,17.20
2022-10-20T21:44:07.844Z,17.20
2022-10-20T21:46:42.090Z,17.10
2022-10-20T21:49:14.343Z,17.10
2022-10-20T21:51:48.354Z,17.10
2022-10-20T21:54:24.635Z,17.10
2022-10-20T21:56:52.859Z,17.20
2022-10-20T21:59:30.118Z,17.10
2022-10-20T22:01:59.832Z,17.00
2022-10-20T22:04:29.233Z,17.00
2022-10-20T22:06:59.293Z,17.00
2022-10-20T22:09:27.032Z,17.00
2022-10-20T22:11:56.005Z,17.00
2022-10-20T22:14:23.750Z,16.90
2022-10-20T22:16:51.485Z,16.80
2022-10-20T22:19:24.118Z,16.80
2022-10-20T22:21:53.115Z,16.90
2022-10-20T22:24:21.740Z,16.90
2022-10-20T22:26:51.702Z,16.90
2022-10-20T22:29:20.676Z,16.80
2022-10-20T22:31:48.223Z,16.90
2022-10-20T22:34:16.157Z,16.80
2022-10-20T22:36:44.538Z,16.80
2022-10-20T22:41:40.756Z,16.80
2022-10-20T22:44:08.446Z,16.70
2022-10-20T22:46:35.799Z,16.70
2022-10-20T22:49:03.247Z,16.70
2022-10-20T22:51:30.650Z,16.60
2022-10-20T22:53:58.821Z,16.60
2022-10-20T22:56:26.219Z,16.60
2022-10-20T22:58:54.013Z,16.60
2022-10-20T23:01:23.654Z,16.50
2022-10-20T23:03:51.811Z,16.60
2022-10-20T23:06:24.780Z,16.50
2022-10-20T23:08:56.293Z,16.50
2022-10-20T23:11:23.770Z,16.60
2022-10-20T23:13:51.517Z,16.60
2022-10-20T23:16:19.444Z,16.60
2022-10-20T23:18:47.545Z,16.60
2022-10-20T23:21:15.197Z,16.70
2022-10-20T23:23:43.130Z,16.60
2022-10-20T23:26:11.114Z,16.70
2022-10-20T23:28:39.023Z,16.70
2022-10-20T23:31:12.431Z,16.70
2022-10-20T23:33:41.464Z,16.70
2022-10-20T23:36:09.743Z,16.70
2022-10-20T23:38:40.702Z,16.70
2022-10-20T23:41:08.253Z,16.70
2022-10-20T23:46:08.997Z,16.70
2022-10-20T23:48:36.591Z,16.80
2022-10-20T23:51:05.266Z,16.80
2022-10-20T23:53:33.269Z,16.80
2022-10-20T23:56:00.611Z,16.90
2022-10-20T23:58:27.969Z,16.90
